Impacts METAR Board
IDs:

KCLL - College Station/East, TX, US

Updated at: 1000 UTC 26 May 2019
Potential Impact None Slight Moderate High
Time 25/22Z 25/23Z 26/00Z 26/01Z 26/02Z 26/03Z 26/04Z 26/05Z 26/06Z 26/07Z 26/08Z 26/09Z 26/10Z
Temp90 89 88 85 82 80 79 77 76 76 77 77 75
Dewpt66 67 66 66 68 69 70 71 72 73 73 73 73
Altim29.99 29.99 29.99 29.99 30.00 30.01 30.03 30.02 30.03 30.03 30.02 30.03 30.03
VIS10 10 10 10 10 10 10 10 10 10 10 10 10
CIG-- -- -- -- -- -- -- -- -- 12 13 20 33
CoverCLRCLRCLRCLRCLRCLRCLRCLRCLRBKNOVCOVCBKN
FltCatVFRVFRVFRVFRVFRVFRVFRVFRVFRMVFRMVFRMVFRVFR
WX--------------------------
WDir150140160160160150150150160150150170150
WSpd15 15 13 8 8 10 9 12 9 8 10 10 7
WGst20 23 -- -- -- -- -- -- -- -- -- -- --
Raw hourly METARs
KCLL 252153Z 15015G20KT 10SM CLR 32/19 A2999 RMK AO2 SLP151 T03220189
KCLL 252253Z 14015G23KT 10SM CLR 32/19 A2999 RMK AO2 SLP150 T03170194
KCLL 252353Z 16013KT 10SM CLR 31/19 A2999 RMK AO2 SLP148 T03110189 10333 20311 56007
KCLL 260053Z 16008KT 10SM CLR 29/19 A2999 RMK AO2 SLP151 T02940189
KCLL 260153Z AUTO 16008KT 10SM CLR 28/20 A3000 RMK AO2 SLP152 T02780200
KCLL 260253Z AUTO 15010KT 10SM CLR 27/21 A3001 RMK AO2 SLP157 T02670206 53008
KCLL 260353Z AUTO 15009KT 10SM CLR 26/21 A3003 RMK AO2 SLP162 T02610211
KCLL 260453Z AUTO 15012KT 10SM CLR 25/22 A3002 RMK AO2 SLP160 T02500217
KCLL 260553Z AUTO 16009KT 10SM CLR 24/22 A3003 RMK AO2 SLP162 T02440222 10311 20244 403330228 51005
KCLL 260653Z AUTO 15008KT 10SM BKN012 24/23 A3003 RMK AO2 SLP163 T02440228
KCLL 260753Z AUTO 15010KT 10SM BKN013 BKN018 OVC023 25/23 A3002 RMK AO2 SLP160 T02500228
KCLL 260853Z AUTO 17010KT 10SM SCT014 BKN020 OVC034 25/23 A3003 RMK AO2 SLP163 T02500228 55000
KCLL 260953Z AUTO 15007KT 10SM FEW016 SCT022 BKN033 24/23 A3003 RMK AO2 SLP164 T02390228